createdAt,value
2018-12-15T00:04:37.003Z,-1.00
2018-12-15T00:09:38.238Z,-1.00
2018-12-15T00:14:39.749Z,-1.10
2018-12-15T00:19:41.046Z,-1.00
2018-12-15T00:24:42.241Z,-1.00
2018-12-15T00:29:43.746Z,-1.00
2018-12-15T00:34:44.949Z,-1.00
2018-12-15T00:39:46.113Z,-1.00
2018-12-15T00:44:47.312Z,-1.00
2018-12-15T00:49:48.506Z,-1.10
2018-12-15T00:54:49.796Z,-1.00
2018-12-15T00:59:50.983Z,-1.00
2018-12-15T01:04:52.161Z,-1.00
2018-12-15T01:09:53.346Z,-1.00
2018-12-15T01:14:54.600Z,-1.00
2018-12-15T01:19:55.949Z,-1.00
2018-12-15T01:24:57.111Z,-0.90
2018-12-15T01:29:58.277Z,-1.00
2018-12-15T01:34:59.450Z,-1.10
2018-12-15T01:40:00.641Z,-1.00
2018-12-15T01:45:02.045Z,-1.00
2018-12-15T01:50:03.886Z,-1.00
2018-12-15T01:55:05.286Z,-1.00
2018-12-15T02:00:06.692Z,-1.00
2018-12-15T02:05:07.866Z,-1.00
2018-12-15T02:10:09.163Z,-1.00
2018-12-15T02:15:10.469Z,-1.00
2018-12-15T02:20:11.766Z,-1.00
2018-12-15T02:25:12.926Z,-1.00
2018-12-15T02:30:14.211Z,-0.90
2018-12-15T02:35:15.386Z,-0.90
2018-12-15T02:40:16.646Z,-1.00
2018-12-15T02:45:17.954Z,-1.00
2018-12-15T02:50:19.234Z,-1.00
2018-12-15T02:55:20.409Z,-0.90
2018-12-15T03:00:21.719Z,-0.90
2018-12-15T03:05:22.930Z,-0.90
2018-12-15T03:10:24.119Z,-0.90
2018-12-15T03:15:25.295Z,-0.90
2018-12-15T03:20:26.482Z,-0.90
2018-12-15T03:25:27.678Z,-0.90
2018-12-15T03:30:29.076Z,-1.00
2018-12-15T03:35:30.335Z,-1.00
2018-12-15T03:40:31.522Z,-1.00
2018-12-15T03:45:32.685Z,-1.00
2018-12-15T03:50:33.849Z,-1.00
2018-12-15T03:55:35.014Z,-1.00
2018-12-15T04:00:36.178Z,-1.00
2018-12-15T04:05:37.374Z,-1.10
2018-12-15T04:10:38.563Z,-1.10
2018-12-15T04:15:39.851Z,-1.10
2018-12-15T04:20:41.034Z,-1.10
2018-12-15T04:25:42.235Z,-1.00
2018-12-15T04:30:43.420Z,-1.00
2018-12-15T04:35:44.609Z,-1.00
2018-12-15T04:40:45.778Z,-1.00
2018-12-15T04:45:46.958Z,-1.00
2018-12-15T04:50:48.171Z,-1.00
2018-12-15T04:55:49.357Z,-1.00
2018-12-15T05:00:50.571Z,-0.90
2018-12-15T05:05:51.734Z,-0.90
2018-12-15T05:10:52.901Z,-1.00
2018-12-15T05:15:54.086Z,-1.00
2018-12-15T05:20:55.250Z,-1.00
2018-12-15T05:25:56.406Z,-1.00
2018-12-15T05:30:57.570Z,-0.90
2018-12-15T05:35:58.751Z,-0.90
2018-12-15T05:40:59.950Z,-0.90
2018-12-15T05:46:01.122Z,-0.90
2018-12-15T05:51:02.453Z,-0.90
2018-12-15T05:56:03.629Z,-0.80
2018-12-15T06:01:04.854Z,-0.80
2018-12-15T06:06:06.038Z,-0.80
2018-12-15T06:11:07.222Z,-0.70
2018-12-15T06:16:08.389Z,-0.60
2018-12-15T06:21:09.578Z,-0.70
2018-12-15T06:26:10.736Z,-0.70
2018-12-15T06:31:11.899Z,-0.70
2018-12-15T06:36:13.071Z,-0.70
2018-12-15T06:41:14.222Z,-0.70
2018-12-15T06:46:15.424Z,-0.70
2018-12-15T06:51:16.623Z,-0.70
2018-12-15T06:56:19.838Z,-0.70
2018-12-15T07:01:21.157Z,-0.70
2018-12-15T07:06:22.380Z,-0.70
2018-12-15T07:11:23.561Z,-0.70
2018-12-15T07:16:24.733Z,-0.70
2018-12-15T07:21:25.901Z,3.40
2018-12-15T07:26:27.065Z,-0.70
2018-12-15T07:31:28.270Z,-0.70
2018-12-15T07:36:29.438Z,-0.70
2018-12-15T07:41:30.660Z,-0.70
2018-12-15T07:46:31.840Z,-0.70
2018-12-15T07:51:33.031Z,-0.70
2018-12-15T07:56:34.201Z,-0.70
2018-12-15T08:01:35.394Z,-0.60
2018-12-15T08:06:36.639Z,-0.60
2018-12-15T08:11:43.830Z,-0.50
2018-12-15T08:16:45.051Z,-0.50
2018-12-15T08:21:46.214Z,-0.40
2018-12-15T08:26:47.408Z,-0.50
2018-12-15T08:31:48.624Z,-0.40
2018-12-15T08:36:49.868Z,-0.40
2018-12-15T08:41:51.057Z,-0.40
2018-12-15T08:46:52.379Z,-0.30
2018-12-15T08:51:53.554Z,1.80
2018-12-15T08:56:54.849Z,-0.20
2018-12-15T09:01:56.821Z,-0.30
2018-12-15T09:06:58.018Z,-0.30
2018-12-15T09:12:00.030Z,-0.30
2018-12-15T09:17:01.418Z,-0.20
2018-12-15T09:22:02.649Z,-0.20
2018-12-15T09:27:03.865Z,-0.20
2018-12-15T09:32:05.309Z,-0.20
2018-12-15T09:37:06.484Z,-0.20
2018-12-15T09:42:07.645Z,-0.10
2018-12-15T09:47:08.882Z,0.00
2018-12-15T09:52:10.107Z,0.00
2018-12-15T09:57:11.362Z,0.10
2018-12-15T10:02:12.551Z,0.00
2018-12-15T10:07:13.722Z,0.00
2018-12-15T10:12:14.898Z,0.00
2018-12-15T10:17:16.823Z,0.00
2018-12-15T10:22:18.113Z,0.00
2018-12-15T10:27:19.341Z,0.10
2018-12-15T10:32:26.803Z,0.20
2018-12-15T10:37:27.997Z,0.20
2018-12-15T10:42:29.194Z,0.20
2018-12-15T10:47:30.395Z,0.20
2018-12-15T10:52:31.600Z,-3.30
2018-12-15T10:57:32.809Z,0.30
2018-12-15T11:02:33.984Z,0.40
2018-12-15T11:07:36.140Z,0.50
2018-12-15T11:12:37.307Z,0.50
2018-12-15T11:17:38.496Z,0.40
2018-12-15T11:22:39.692Z,0.40
2018-12-15T11:27:40.885Z,0.30
2018-12-15T11:32:42.060Z,0.40
2018-12-15T11:37:43.238Z,0.50
2018-12-15T11:42:44.428Z,0.50
2018-12-15T11:47:45.616Z,0.50
2018-12-15T11:52:46.790Z,0.50
2018-12-15T11:57:47.982Z,0.50
2018-12-15T12:02:49.334Z,0.50
2018-12-15T12:07:50.741Z,0.50
2018-12-15T12:12:52.103Z,0.60
2018-12-15T12:17:53.302Z,0.50
2018-12-15T12:22:54.510Z,0.50
2018-12-15T12:27:56.667Z,0.50
2018-12-15T12:32:59.346Z,0.40
2018-12-15T12:38:00.901Z,0.40
2018-12-15T12:43:02.097Z,0.40
2018-12-15T12:48:03.304Z,0.50
2018-12-15T12:53:04.493Z,0.50
2018-12-15T12:58:05.766Z,0.50
2018-12-15T13:03:06.929Z,0.40
2018-12-15T13:08:08.137Z,0.40
2018-12-15T13:13:09.354Z,0.40
2018-12-15T13:18:10.542Z,0.40
2018-12-15T13:23:11.741Z,0.40
2018-12-15T13:28:13.113Z,0.40
2018-12-15T13:33:27.944Z,0.40
2018-12-15T13:38:29.134Z,0.50
2018-12-15T13:43:30.640Z,0.40
2018-12-15T13:48:31.908Z,0.40
2018-12-15T13:53:33.144Z,0.50
2018-12-15T13:58:34.382Z,0.50
2018-12-15T14:03:35.587Z,0.40
2018-12-15T14:08:37.068Z,0.40
2018-12-15T14:13:38.270Z,0.40
2018-12-15T14:18:39.446Z,0.30
2018-12-15T14:23:40.629Z,2.20
2018-12-15T14:28:42.755Z,0.10
2018-12-15T14:33:43.956Z,0.10
2018-12-15T14:38:45.166Z,0.40
2018-12-15T14:43:46.342Z,0.00
2018-12-15T14:48:47.544Z,0.00
2018-12-15T14:53:48.762Z,0.10
2018-12-15T14:58:49.951Z,0.10
2018-12-15T15:03:51.159Z,0.00
2018-12-15T15:08:52.344Z,0.10
2018-12-15T15:13:53.640Z,0.00
2018-12-15T15:18:54.814Z,3.30
2018-12-15T15:23:56.034Z,2.70
2018-12-15T15:28:57.215Z,-0.10
2018-12-15T15:33:58.410Z,-0.10
2018-12-15T15:38:59.644Z,-0.20
2018-12-15T15:44:00.859Z,-2.10
2018-12-15T15:49:02.041Z,-0.20
2018-12-15T15:54:03.398Z,-0.20
2018-12-15T15:59:04.618Z,-0.20
2018-12-15T16:04:05.832Z,-0.30
2018-12-15T16:09:07.622Z,-0.30
2018-12-15T16:14:08.819Z,-0.30
2018-12-15T16:19:10.003Z,-0.30
2018-12-15T16:24:11.198Z,-0.20
2018-12-15T16:29:12.400Z,-0.30
2018-12-15T16:34:13.595Z,-0.30
2018-12-15T16:39:14.800Z,-0.30
2018-12-15T16:44:15.983Z,-0.30
2018-12-15T16:49:17.290Z,-0.20
2018-12-15T16:54:18.547Z,-0.30
2018-12-15T16:59:19.750Z,-0.30
2018-12-15T17:04:20.950Z,-0.30
2018-12-15T17:09:22.159Z,-0.40
2018-12-15T17:19:52.002Z,-0.50
2018-12-15T17:24:53.409Z,-0.60
2018-12-15T17:29:54.623Z,-0.70
2018-12-15T17:34:55.783Z,-0.80
2018-12-15T17:39:56.978Z,-0.80
2018-12-15T17:44:58.179Z,-1.00
2018-12-15T17:55:00.978Z,-1.40
2018-12-15T18:00:04.343Z,-1.70
2018-12-15T18:05:05.758Z,-1.70
2018-12-15T18:10:07.694Z,-1.90
2018-12-15T18:15:09.013Z,-2.00
2018-12-15T18:20:11.206Z,-2.10
2018-12-15T18:25:12.384Z,-2.00
2018-12-15T18:35:15.146Z,-2.00
2018-12-15T18:40:16.600Z,-2.00
2018-12-15T18:45:17.836Z,-2.00
2018-12-15T18:50:19.186Z,-2.00
2018-12-15T18:55:20.479Z,-2.20
2018-12-15T19:00:21.682Z,-2.20
2018-12-15T19:05:22.864Z,-2.40
2018-12-15T19:10:24.043Z,-2.30
2018-12-15T19:15:25.230Z,-2.40
2018-12-15T19:20:26.512Z,-2.60
2018-12-15T19:25:28.050Z,-2.50
2018-12-15T19:30:29.348Z,-2.40
2018-12-15T19:35:30.539Z,-2.50
2018-12-15T19:40:31.879Z,-2.50
2018-12-15T19:45:33.083Z,-2.50
2018-12-15T19:50:34.301Z,-2.50
2018-12-15T19:55:35.512Z,-2.60
2018-12-15T20:00:36.736Z,-2.50
2018-12-15T20:05:37.988Z,-2.50
2018-12-15T20:10:39.235Z,-2.60
2018-12-15T20:15:42.728Z,-2.60
2018-12-15T20:20:44.097Z,-2.50
2018-12-15T20:25:45.317Z,-2.60
2018-12-15T20:30:46.536Z,-2.50
2018-12-15T20:35:48.065Z,-2.60
2018-12-15T20:40:49.288Z,-2.50
2018-12-15T20:50:52.046Z,-2.60
2018-12-15T20:55:53.303Z,-2.60
2018-12-15T21:05:56.086Z,-2.60
2018-12-15T21:15:58.994Z,-2.60
2018-12-15T21:21:00.264Z,-2.90
2018-12-15T21:26:01.590Z,-3.00
2018-12-15T21:31:03.056Z,-3.00
2018-12-15T21:36:04.254Z,-2.90
2018-12-15T21:41:05.483Z,-3.00
2018-12-15T21:46:06.688Z,-2.90
2018-12-15T21:51:07.884Z,-2.90
2018-12-15T22:01:10.615Z,-2.90
2018-12-15T22:11:13.326Z,-2.90
2018-12-15T22:16:14.523Z,-3.10
2018-12-15T22:21:15.742Z,-3.20
2018-12-15T22:26:17.066Z,-3.00
2018-12-15T22:31:18.298Z,-3.00
2018-12-15T22:36:19.535Z,-2.80
2018-12-15T22:41:20.703Z,0.80
2018-12-15T22:46:21.878Z,-2.20
2018-12-15T22:56:24.615Z,-1.90
2018-12-15T23:01:25.958Z,-1.90
2018-12-15T23:06:27.162Z,-1.80
2018-12-15T23:11:28.379Z,-1.80
2018-12-15T23:16:29.562Z,-1.70
2018-12-15T23:21:30.785Z,-1.80
2018-12-15T23:26:31.983Z,-1.80
2018-12-15T23:31:33.163Z,-1.80
2018-12-15T23:36:34.453Z,-1.90
2018-12-15T23:41:35.642Z,-1.90
2018-12-15T23:46:36.862Z,-1.80
2018-12-15T23:56:39.638Z,-1.80
